KLGB/LGB METAR and TAF weather

Enter ICAO airport designator
Station Type Date Time Source
KLGB METAR 2022/12/05 13:53 UTC NOAA

KLGB 051353Z AUTO 00000KT 9SM FEW013 13/11 A3005 RMK AO2 SLP174 T01330111


Station Type Date Time Source
KLGB Decoded METAR 2022/12/05 13:53 UTC NOAA

LONG BEACH AIRPORT, CA, United States (KLGB) 33-49N 118-09W 10M
Dec 05, 2022 - 08:53 AM EST / 2022.12.05 1353 UTC
Wind: Calm:0
Visibility: 9 mile(s):0
Sky conditions: mostly clear
Temperature: 55.9 F (13.3 C)
Dew Point: 52.0 F (11.1 C)
Relative Humidity: 86%
Pressure (altimeter): 30.05 in. Hg (1017 hPa)
ob: KLGB 051353Z AUTO 00000KT 9SM FEW013 13/11 A3005 RMK AO2 SLP174 T01330111
cycle: 14

Station Type Date Time Source
KLGB TAF 2022/12/05 12:39 UTC NOAA

TAF KLGB 051136Z 0512/0612 VRB03KT P6SM SCT026
FM051800 25006KT P6SM BKN035
FM052200 25006KT P6SM BKN200
FM060400 VRB03KT P6SM BKN200

Example: see airport list